sensor_id;sensor_type;location;lat;lon;timestamp;P1;durP1;ratioP1;P2;durP2;ratioP2
22955;SDS011;40888;48.148;11.526;2022-11-15T00:01:41;6.23;;;5.10;;
22955;SDS011;40888;48.148;11.526;2022-11-15T00:04:07;5.20;;;4.70;;
22955;SDS011;40888;48.148;11.526;2022-11-15T00:06:33;5.80;;;4.93;;
22955;SDS011;40888;48.148;11.526;2022-11-15T00:09:00;4.70;;;4.30;;
22955;SDS011;40888;48.148;11.526;2022-11-15T00:11:26;4.73;;;4.30;;
22955;SDS011;40888;48.148;11.526;2022-11-15T00:13:56;5.70;;;4.63;;
22955;SDS011;40888;48.148;11.526;2022-11-15T00:16:22;3.93;;;3.63;;
22955;SDS011;40888;48.148;11.526;2022-11-15T00:18:49;4.70;;;4.13;;
22955;SDS011;40888;48.148;11.526;2022-11-15T00:21:15;4.43;;;4.03;;
22955;SDS011;40888;48.148;11.526;2022-11-15T00:23:41;4.20;;;3.90;;
22955;SDS011;40888;48.148;11.526;2022-11-15T00:26:11;4.77;;;3.90;;
22955;SDS011;40888;48.148;11.526;2022-11-15T00:28:38;4.27;;;3.83;;
22955;SDS011;40888;48.148;11.526;2022-11-15T00:31:05;3.97;;;3.50;;
22955;SDS011;40888;48.148;11.526;2022-11-15T00:33:32;4.53;;;4.10;;
22955;SDS011;40888;48.148;11.526;2022-11-15T00:35:59;4.23;;;3.83;;
22955;SDS011;40888;48.148;11.526;2022-11-15T00:38:30;3.83;;;3.53;;
22955;SDS011;40888;48.148;11.526;2022-11-15T00:40:56;3.90;;;3.60;;
22955;SDS011;40888;48.148;11.526;2022-11-15T00:43:22;4.07;;;3.67;;
22955;SDS011;40888;48.148;11.526;2022-11-15T00:45:48;4.33;;;3.80;;
22955;SDS011;40888;48.148;11.526;2022-11-15T00:48:15;5.57;;;4.00;;
22955;SDS011;40888;48.148;11.526;2022-11-15T00:50:41;4.70;;;4.20;;
22955;SDS011;40888;48.148;11.526;2022-11-15T00:53:07;5.13;;;4.17;;
22955;SDS011;40888;48.148;11.526;2022-11-15T00:55:33;4.13;;;3.73;;
22955;SDS011;40888;48.148;11.526;2022-11-15T00:57:59;3.90;;;3.60;;
22955;SDS011;40888;48.148;11.526;2022-11-15T01:00:25;4.30;;;3.90;;
22955;SDS011;40888;48.148;11.526;2022-11-15T01:02:52;3.70;;;3.40;;
22955;SDS011;40888;48.148;11.526;2022-11-15T01:05:18;4.70;;;3.97;;
22955;SDS011;40888;48.148;11.526;2022-11-15T01:07:44;4.73;;;3.90;;
22955;SDS011;40888;48.148;11.526;2022-11-15T01:10:11;4.50;;;3.93;;
22955;SDS011;40888;48.148;11.526;2022-11-15T01:12:37;4.37;;;3.47;;
22955;SDS011;40888;48.148;11.526;2022-11-15T01:15:04;4.20;;;3.80;;
22955;SDS011;40888;48.148;11.526;2022-11-15T01:17:30;3.93;;;3.40;;
22955;SDS011;40888;48.148;11.526;2022-11-15T01:19:56;5.40;;;4.07;;
22955;SDS011;40888;48.148;11.526;2022-11-15T01:22:23;4.27;;;3.87;;
22955;SDS011;40888;48.148;11.526;2022-11-15T01:24:49;5.30;;;3.93;;
22955;SDS011;40888;48.148;11.526;2022-11-15T01:27:16;6.50;;;4.03;;
22955;SDS011;40888;48.148;11.526;2022-11-15T01:29:42;4.40;;;3.90;;
22955;SDS011;40888;48.148;11.526;2022-11-15T01:32:08;7.07;;;3.90;;
22955;SDS011;40888;48.148;11.526;2022-11-15T01:34:34;4.27;;;3.87;;
22955;SDS011;40888;48.148;11.526;2022-11-15T01:37:00;4.57;;;3.63;;
22955;SDS011;40888;48.148;11.526;2022-11-15T01:39:27;4.13;;;3.73;;
22955;SDS011;40888;48.148;11.526;2022-11-15T01:41:53;4.03;;;3.63;;
22955;SDS011;40888;48.148;11.526;2022-11-15T01:44:31;4.67;;;3.47;;
22955;SDS011;40888;48.148;11.526;2022-11-15T01:47:03;5.57;;;4.50;;
22955;SDS011;40888;48.148;11.526;2022-11-15T01:49:30;4.43;;;3.60;;
22955;SDS011;40888;48.148;11.526;2022-11-15T01:51:58;3.87;;;3.57;;
22955;SDS011;40888;48.148;11.526;2022-11-15T01:54:25;4.70;;;3.53;;
22955;SDS011;40888;48.148;11.526;2022-11-15T01:56:53;3.83;;;3.37;;
22955;SDS011;40888;48.148;11.526;2022-11-15T01:59:20;3.80;;;3.50;;
22955;SDS011;40888;48.148;11.526;2022-11-15T02:01:47;3.53;;;3.23;;
22955;SDS011;40888;48.148;11.526;2022-11-15T02:04:14;3.90;;;3.23;;
22955;SDS011;40888;48.148;11.526;2022-11-15T02:06:42;3.83;;;3.53;;
22955;SDS011;40888;48.148;11.526;2022-11-15T02:09:08;3.90;;;3.57;;
22955;SDS011;40888;48.148;11.526;2022-11-15T02:11:35;3.37;;;3.13;;
22955;SDS011;40888;48.148;11.526;2022-11-15T02:14:01;3.87;;;3.50;;
22955;SDS011;40888;48.148;11.526;2022-11-15T02:21:41;4.87;;;3.50;;
22955;SDS011;40888;48.148;11.526;2022-11-15T02:29:40;3.50;;;3.20;;
22955;SDS011;40888;48.148;11.526;2022-11-15T02:32:14;3.90;;;3.50;;
22955;SDS011;40888;48.148;11.526;2022-11-15T02:34:52;3.37;;;3.07;;
22955;SDS011;40888;48.148;11.526;2022-11-15T02:42:53;3.70;;;3.20;;
22955;SDS011;40888;48.148;11.526;2022-11-15T02:45:39;4.47;;;3.23;;
22955;SDS011;40888;48.148;11.526;2022-11-15T02:48:06;3.47;;;3.20;;
22955;SDS011;40888;48.148;11.526;2022-11-15T02:50:33;3.90;;;3.20;;
22955;SDS011;40888;48.148;11.526;2022-11-15T02:53:00;3.30;;;3.00;;
22955;SDS011;40888;48.148;11.526;2022-11-15T02:57:54;3.20;;;2.90;;
22955;SDS011;40888;48.148;11.526;2022-11-15T03:00:24;4.47;;;3.20;;
22955;SDS011;40888;48.148;11.526;2022-11-15T03:05:41;3.30;;;3.00;;
22955;SDS011;40888;48.148;11.526;2022-11-15T03:08:11;3.33;;;3.00;;
22955;SDS011;40888;48.148;11.526;2022-11-15T03:16:01;3.30;;;3.00;;
22955;SDS011;40888;48.148;11.526;2022-11-15T03:18:32;3.00;;;2.80;;
22955;SDS011;40888;48.148;11.526;2022-11-15T03:21:03;3.60;;;3.30;;
22955;SDS011;40888;48.148;11.526;2022-11-15T03:23:30;3.20;;;2.90;;
22955;SDS011;40888;48.148;11.526;2022-11-15T03:25:58;3.50;;;3.20;;
22955;SDS011;40888;48.148;11.526;2022-11-15T03:28:26;2.83;;;2.63;;
22955;SDS011;40888;48.148;11.526;2022-11-15T03:30:54;2.87;;;2.67;;
22955;SDS011;40888;48.148;11.526;2022-11-15T03:33:21;3.10;;;2.87;;
22955;SDS011;40888;48.148;11.526;2022-11-15T03:35:47;4.17;;;2.63;;
22955;SDS011;40888;48.148;11.526;2022-11-15T03:38:16;2.93;;;2.73;;
22955;SDS011;40888;48.148;11.526;2022-11-15T03:40:45;3.10;;;2.90;;
22955;SDS011;40888;48.148;11.526;2022-11-15T03:43:24;3.40;;;2.97;;
22955;SDS011;40888;48.148;11.526;2022-11-15T03:45:56;3.30;;;3.00;;
22955;SDS011;40888;48.148;11.526;2022-11-15T03:48:25;2.80;;;2.60;;
22955;SDS011;40888;48.148;11.526;2022-11-15T03:50:53;2.70;;;2.50;;
22955;SDS011;40888;48.148;11.526;2022-11-15T03:53:19;3.00;;;2.70;;
22955;SDS011;40888;48.148;11.526;2022-11-15T03:55:46;3.30;;;3.00;;
22955;SDS011;40888;48.148;11.526;2022-11-15T03:58:12;3.10;;;2.80;;
22955;SDS011;40888;48.148;11.526;2022-11-15T04:00:38;3.40;;;3.10;;
22955;SDS011;40888;48.148;11.526;2022-11-15T04:03:05;3.00;;;2.80;;
22955;SDS011;40888;48.148;11.526;2022-11-15T04:05:32;3.23;;;3.03;;
22955;SDS011;40888;48.148;11.526;2022-11-15T04:07:58;2.67;;;2.47;;
22955;SDS011;40888;48.148;11.526;2022-11-15T04:10:24;3.53;;;2.70;;
22955;SDS011;40888;48.148;11.526;2022-11-15T04:12:50;4.17;;;2.93;;
22955;SDS011;40888;48.148;11.526;2022-11-15T04:15:20;3.50;;;3.00;;
22955;SDS011;40888;48.148;11.526;2022-11-15T04:17:48;2.77;;;2.57;;
22955;SDS011;40888;48.148;11.526;2022-11-15T04:20:18;2.93;;;2.63;;
22955;SDS011;40888;48.148;11.526;2022-11-15T04:23:05;2.50;;;2.30;;
22955;SDS011;40888;48.148;11.526;2022-11-15T04:25:51;3.33;;;2.63;;
22955;SDS011;40888;48.148;11.526;2022-11-15T04:28:17;3.20;;;2.90;;
22955;SDS011;40888;48.148;11.526;2022-11-15T04:30:43;2.93;;;2.63;;
22955;SDS011;40888;48.148;11.526;2022-11-15T04:33:09;3.60;;;3.00;;
22955;SDS011;40888;48.148;11.526;2022-11-15T04:35:36;2.87;;;2.67;;
22955;SDS011;40888;48.148;11.526;2022-11-15T04:38:03;3.10;;;2.80;;
22955;SDS011;40888;48.148;11.526;2022-11-15T04:40:29;3.50;;;3.20;;
22955;SDS011;40888;48.148;11.526;2022-11-15T04:42:56;4.03;;;2.80;;
22955;SDS011;40888;48.148;11.526;2022-11-15T04:45:22;3.30;;;3.00;;
22955;SDS011;40888;48.148;11.526;2022-11-15T04:47:48;3.10;;;2.80;;
22955;SDS011;40888;48.148;11.526;2022-11-15T04:50:15;2.73;;;2.47;;
22955;SDS011;40888;48.148;11.526;2022-11-15T04:52:49;3.80;;;3.03;;
22955;SDS011;40888;48.148;11.526;2022-11-15T04:55:16;2.80;;;2.60;;
22955;SDS011;40888;48.148;11.526;2022-11-15T04:57:42;2.90;;;2.60;;
22955;SDS011;40888;48.148;11.526;2022-11-15T05:00:09;2.70;;;2.50;;
22955;SDS011;40888;48.148;11.526;2022-11-15T05:02:36;2.57;;;2.37;;
22955;SDS011;40888;48.148;11.526;2022-11-15T05:05:20;2.77;;;2.53;;
22955;SDS011;40888;48.148;11.526;2022-11-15T05:07:47;3.47;;;2.63;;
22955;SDS011;40888;48.148;11.526;2022-11-15T05:10:13;2.90;;;2.50;;
22955;SDS011;40888;48.148;11.526;2022-11-15T05:12:39;3.10;;;2.80;;
22955;SDS011;40888;48.148;11.526;2022-11-15T05:15:05;3.20;;;2.80;;
22955;SDS011;40888;48.148;11.526;2022-11-15T05:17:32;3.00;;;2.60;;
22955;SDS011;40888;48.148;11.526;2022-11-15T05:19:58;2.83;;;2.63;;
22955;SDS011;40888;48.148;11.526;2022-11-15T05:22:24;2.57;;;2.37;;
22955;SDS011;40888;48.148;11.526;2022-11-15T05:24:50;3.43;;;2.47;;
22955;SDS011;40888;48.148;11.526;2022-11-15T05:27:16;2.83;;;2.53;;
22955;SDS011;40888;48.148;11.526;2022-11-15T05:29:42;2.50;;;2.30;;
22955;SDS011;40888;48.148;11.526;2022-11-15T05:32:09;3.03;;;2.83;;
22955;SDS011;40888;48.148;11.526;2022-11-15T05:34:35;2.70;;;2.50;;
22955;SDS011;40888;48.148;11.526;2022-11-15T05:37:01;2.43;;;2.23;;
22955;SDS011;40888;48.148;11.526;2022-11-15T05:39:29;3.73;;;2.90;;
22955;SDS011;40888;48.148;11.526;2022-11-15T05:42:16;3.33;;;2.70;;
22955;SDS011;40888;48.148;11.526;2022-11-15T05:44:43;3.40;;;3.10;;
22955;SDS011;40888;48.148;11.526;2022-11-15T05:47:10;6.50;;;3.13;;
22955;SDS011;40888;48.148;11.526;2022-11-15T05:49:38;8.90;;;3.13;;
22955;SDS011;40888;48.148;11.526;2022-11-15T05:52:07;4.37;;;2.93;;
22955;SDS011;40888;48.148;11.526;2022-11-15T05:54:35;3.37;;;2.83;;
22955;SDS011;40888;48.148;11.526;2022-11-15T05:57:03;5.00;;;2.87;;
22955;SDS011;40888;48.148;11.526;2022-11-15T05:59:30;3.50;;;2.90;;
22955;SDS011;40888;48.148;11.526;2022-11-15T06:01:57;4.90;;;3.33;;
22955;SDS011;40888;48.148;11.526;2022-11-15T06:04:23;5.40;;;3.50;;
22955;SDS011;40888;48.148;11.526;2022-11-15T06:06:49;14.73;;;11.77;;
22955;SDS011;40888;48.148;11.526;2022-11-15T06:09:16;8.27;;;5.60;;
22955;SDS011;40888;48.148;11.526;2022-11-15T06:11:43;8.73;;;4.90;;
22955;SDS011;40888;48.148;11.526;2022-11-15T06:14:09;3.93;;;3.50;;
22955;SDS011;40888;48.148;11.526;2022-11-15T06:16:36;7.10;;;4.17;;
22955;SDS011;40888;48.148;11.526;2022-11-15T06:19:02;4.47;;;3.57;;
22955;SDS011;40888;48.148;11.526;2022-11-15T06:21:28;3.90;;;3.10;;
22955;SDS011;40888;48.148;11.526;2022-11-15T06:23:54;4.90;;;3.73;;
22955;SDS011;40888;48.148;11.526;2022-11-15T06:26:20;5.13;;;3.93;;
22955;SDS011;40888;48.148;11.526;2022-11-15T06:28:47;4.73;;;3.40;;
22955;SDS011;40888;48.148;11.526;2022-11-15T06:31:13;5.93;;;3.70;;
22955;SDS011;40888;48.148;11.526;2022-11-15T06:33:39;5.07;;;3.70;;
22955;SDS011;40888;48.148;11.526;2022-11-15T06:36:06;8.07;;;5.27;;
22955;SDS011;40888;48.148;11.526;2022-11-15T06:38:33;5.87;;;3.93;;
22955;SDS011;40888;48.148;11.526;2022-11-15T06:41:03;5.37;;;3.30;;
22955;SDS011;40888;48.148;11.526;2022-11-15T06:43:30;4.37;;;2.90;;
22955;SDS011;40888;48.148;11.526;2022-11-15T06:45:57;5.87;;;2.90;;
22955;SDS011;40888;48.148;11.526;2022-11-15T06:48:24;7.37;;;3.57;;
22955;SDS011;40888;48.148;11.526;2022-11-15T06:50:51;4.37;;;3.17;;
22955;SDS011;40888;48.148;11.526;2022-11-15T06:53:18;6.27;;;3.97;;
22955;SDS011;40888;48.148;11.526;2022-11-15T06:55:44;4.17;;;3.40;;
22955;SDS011;40888;48.148;11.526;2022-11-15T06:58:10;7.03;;;5.40;;
22955;SDS011;40888;48.148;11.526;2022-11-15T07:00:36;4.20;;;3.30;;
22955;SDS011;40888;48.148;11.526;2022-11-15T07:03:03;6.77;;;3.57;;
22955;SDS011;40888;48.148;11.526;2022-11-15T07:05:29;5.53;;;3.50;;
22955;SDS011;40888;48.148;11.526;2022-11-15T07:07:56;4.30;;;2.80;;
22955;SDS011;40888;48.148;11.526;2022-11-15T07:10:22;7.00;;;3.50;;
22955;SDS011;40888;48.148;11.526;2022-11-15T07:12:52;6.20;;;3.20;;
22955;SDS011;40888;48.148;11.526;2022-11-15T07:15:19;4.07;;;3.10;;
22955;SDS011;40888;48.148;11.526;2022-11-15T07:17:45;4.33;;;3.40;;
22955;SDS011;40888;48.148;11.526;2022-11-15T07:20:12;4.57;;;2.73;;
22955;SDS011;40888;48.148;11.526;2022-11-15T07:22:39;6.80;;;2.90;;
22955;SDS011;40888;48.148;11.526;2022-11-15T07:25:05;8.20;;;3.33;;
22955;SDS011;40888;48.148;11.526;2022-11-15T07:27:31;6.20;;;2.90;;
22955;SDS011;40888;48.148;11.526;2022-11-15T07:29:57;3.73;;;2.87;;
22955;SDS011;40888;48.148;11.526;2022-11-15T07:32:24;3.77;;;2.97;;
22955;SDS011;40888;48.148;11.526;2022-11-15T07:34:50;8.23;;;3.40;;
22955;SDS011;40888;48.148;11.526;2022-11-15T07:37:16;5.73;;;2.90;;
22955;SDS011;40888;48.148;11.526;2022-11-15T07:39:42;4.13;;;2.50;;
22955;SDS011;40888;48.148;11.526;2022-11-15T07:42:08;4.47;;;2.93;;
22955;SDS011;40888;48.148;11.526;2022-11-15T07:44:53;4.83;;;2.80;;
22955;SDS011;40888;48.148;11.526;2022-11-15T07:47:19;3.47;;;2.83;;
22955;SDS011;40888;48.148;11.526;2022-11-15T07:49:46;5.97;;;2.57;;
22955;SDS011;40888;48.148;11.526;2022-11-15T07:52:12;3.43;;;2.30;;
22955;SDS011;40888;48.148;11.526;2022-11-15T07:54:39;3.63;;;2.40;;
22955;SDS011;40888;48.148;11.526;2022-11-15T07:57:05;2.93;;;2.20;;
22955;SDS011;40888;48.148;11.526;2022-11-15T07:59:34;4.67;;;2.73;;
22955;SDS011;40888;48.148;11.526;2022-11-15T08:02:01;2.70;;;2.50;;
22955;SDS011;40888;48.148;11.526;2022-11-15T08:04:27;5.10;;;3.00;;
22955;SDS011;40888;48.148;11.526;2022-11-15T08:06:53;8.43;;;3.10;;
22955;SDS011;40888;48.148;11.526;2022-11-15T08:09:19;7.73;;;3.23;;
22955;SDS011;40888;48.148;11.526;2022-11-15T08:11:46;3.97;;;2.80;;
22955;SDS011;40888;48.148;11.526;2022-11-15T08:14:12;5.53;;;2.73;;
22955;SDS011;40888;48.148;11.526;2022-11-15T08:16:38;7.37;;;5.00;;
22955;SDS011;40888;48.148;11.526;2022-11-15T08:19:04;19.07;;;13.00;;
22955;SDS011;40888;48.148;11.526;2022-11-15T08:21:30;8.15;;;3.33;;
22955;SDS011;40888;48.148;11.526;2022-11-15T08:23:57;4.00;;;2.55;;
22955;SDS011;40888;48.148;11.526;2022-11-15T08:26:23;6.03;;;2.92;;
22955;SDS011;40888;48.148;11.526;2022-11-15T08:28:54;4.55;;;2.50;;
22955;SDS011;40888;48.148;11.526;2022-11-15T08:31:20;6.00;;;3.22;;
22955;SDS011;40888;48.148;11.526;2022-11-15T08:33:46;10.10;;;3.30;;
22955;SDS011;40888;48.148;11.526;2022-11-15T08:36:13;8.55;;;3.45;;
22955;SDS011;40888;48.148;11.526;2022-11-15T08:38:40;5.97;;;3.50;;
22955;SDS011;40888;48.148;11.526;2022-11-15T08:41:06;6.63;;;3.00;;
22955;SDS011;40888;48.148;11.526;2022-11-15T08:43:32;5.55;;;3.08;;
22955;SDS011;40888;48.148;11.526;2022-11-15T08:45:59;9.02;;;2.95;;
22955;SDS011;40888;48.148;11.526;2022-11-15T08:48:25;5.55;;;3.10;;
22955;SDS011;40888;48.148;11.526;2022-11-15T08:50:54;5.05;;;2.85;;
22955;SDS011;40888;48.148;11.526;2022-11-15T08:53:21;7.20;;;3.40;;
22955;SDS011;40888;48.148;11.526;2022-11-15T08:55:47;6.07;;;2.70;;
22955;SDS011;40888;48.148;11.526;2022-11-15T08:58:14;2.92;;;2.60;;
22955;SDS011;40888;48.148;11.526;2022-11-15T09:00:40;5.10;;;3.03;;
22955;SDS011;40888;48.148;11.526;2022-11-15T09:03:06;5.70;;;3.05;;
22955;SDS011;40888;48.148;11.526;2022-11-15T09:05:35;7.47;;;2.97;;
22955;SDS011;40888;48.148;11.526;2022-11-15T09:08:02;4.32;;;2.60;;
22955;SDS011;40888;48.148;11.526;2022-11-15T09:10:29;4.18;;;2.80;;
22955;SDS011;40888;48.148;11.526;2022-11-15T09:12:56;6.28;;;2.78;;
22955;SDS011;40888;48.148;11.526;2022-11-15T09:15:23;6.30;;;3.00;;
22955;SDS011;40888;48.148;11.526;2022-11-15T09:17:49;6.35;;;2.70;;
22955;SDS011;40888;48.148;11.526;2022-11-15T09:20:15;4.72;;;3.00;;
22955;SDS011;40888;48.148;11.526;2022-11-15T09:22:41;8.75;;;2.75;;
22955;SDS011;40888;48.148;11.526;2022-11-15T09:25:08;3.42;;;3.13;;
22955;SDS011;40888;48.148;11.526;2022-11-15T09:27:34;5.55;;;3.53;;
22955;SDS011;40888;48.148;11.526;2022-11-15T09:30:00;6.13;;;3.15;;
22955;SDS011;40888;48.148;11.526;2022-11-15T09:32:29;3.35;;;2.97;;
22955;SDS011;40888;48.148;11.526;2022-11-15T09:34:55;5.88;;;2.90;;
22955;SDS011;40888;48.148;11.526;2022-11-15T09:37:22;5.43;;;3.40;;
22955;SDS011;40888;48.148;11.526;2022-11-15T09:39:48;4.68;;;3.00;;
22955;SDS011;40888;48.148;11.526;2022-11-15T09:50:11;3.28;;;2.50;;
22955;SDS011;40888;48.148;11.526;2022-11-15T09:52:38;5.22;;;2.60;;
22955;SDS011;40888;48.148;11.526;2022-11-15T09:55:07;3.97;;;2.60;;
22955;SDS011;40888;48.148;11.526;2022-11-15T10:00:20;6.65;;;3.05;;
22955;SDS011;40888;48.148;11.526;2022-11-15T10:05:32;4.07;;;2.90;;
22955;SDS011;40888;48.148;11.526;2022-11-15T10:08:22;2.95;;;2.67;;
22955;SDS011;40888;48.148;11.526;2022-11-15T10:10:59;6.20;;;3.20;;
22955;SDS011;40888;48.148;11.526;2022-11-15T10:13:26;3.55;;;3.17;;
22955;SDS011;40888;48.148;11.526;2022-11-15T10:15:55;5.13;;;2.58;;
22955;SDS011;40888;48.148;11.526;2022-11-15T10:20:58;3.15;;;2.85;;
22955;SDS011;40888;48.148;11.526;2022-11-15T10:23:25;3.35;;;2.80;;
22955;SDS011;40888;48.148;11.526;2022-11-15T10:25:53;4.28;;;2.95;;
22955;SDS011;40888;48.148;11.526;2022-11-15T10:28:26;4.75;;;2.75;;
22955;SDS011;40888;48.148;11.526;2022-11-15T10:30:53;3.50;;;2.78;;
22955;SDS011;40888;48.148;11.526;2022-11-15T10:33:25;3.35;;;2.70;;
22955;SDS011;40888;48.148;11.526;2022-11-15T10:41:36;2.58;;;2.00;;
22955;SDS011;40888;48.148;11.526;2022-11-15T10:46:34;2.88;;;2.00;;
22955;SDS011;40888;48.148;11.526;2022-11-15T10:49:14;3.03;;;2.17;;
22955;SDS011;40888;48.148;11.526;2022-11-15T10:51:43;4.88;;;1.80;;
22955;SDS011;40888;48.148;11.526;2022-11-15T10:54:10;5.25;;;2.20;;
22955;SDS011;40888;48.148;11.526;2022-11-15T10:56:38;3.78;;;1.75;;
22955;SDS011;40888;48.148;11.526;2022-11-15T10:59:12;5.35;;;1.85;;
22955;SDS011;40888;48.148;11.526;2022-11-15T11:01:46;2.20;;;2.00;;
22955;SDS011;40888;48.148;11.526;2022-11-15T11:04:13;3.65;;;2.08;;
22955;SDS011;40888;48.148;11.526;2022-11-15T11:07:19;2.30;;;2.10;;
22955;SDS011;40888;48.148;11.526;2022-11-15T11:09:36;3.10;;;1.90;;
22955;SDS011;40888;48.148;11.526;2022-11-15T11:12:04;3.20;;;1.75;;
22955;SDS011;40888;48.148;11.526;2022-11-15T11:14:34;4.28;;;1.75;;
22955;SDS011;40888;48.148;11.526;2022-11-15T11:19:57;2.67;;;1.80;;
22955;SDS011;40888;48.148;11.526;2022-11-15T11:25:04;2.78;;;2.00;;
22955;SDS011;40888;48.148;11.526;2022-11-15T11:30:17;4.55;;;1.98;;
22955;SDS011;40888;48.148;11.526;2022-11-15T11:32:56;2.58;;;1.98;;
22955;SDS011;40888;48.148;11.526;2022-11-15T11:35:34;3.63;;;1.80;;
22955;SDS011;40888;48.148;11.526;2022-11-15T11:38:10;3.20;;;1.67;;
22955;SDS011;40888;48.148;11.526;2022-11-15T11:40:44;2.03;;;1.73;;
22955;SDS011;40888;48.148;11.526;2022-11-15T11:48:13;2.15;;;1.58;;
22955;SDS011;40888;48.148;11.526;2022-11-15T11:50:40;1.70;;;1.60;;
22955;SDS011;40888;48.148;11.526;2022-11-15T11:53:41;2.17;;;1.98;;
22955;SDS011;40888;48.148;11.526;2022-11-15T11:56:02;1.80;;;1.58;;
22955;SDS011;40888;48.148;11.526;2022-11-15T12:00:58;3.20;;;1.60;;
22955;SDS011;40888;48.148;11.526;2022-11-15T12:06:06;2.90;;;1.60;;
22955;SDS011;40888;48.148;11.526;2022-11-15T12:13:43;2.20;;;2.08;;
22955;SDS011;40888;48.148;11.526;2022-11-15T12:16:26;2.25;;;1.83;;
22955;SDS011;40888;48.148;11.526;2022-11-15T12:18:53;2.63;;;1.70;;
22955;SDS011;40888;48.148;11.526;2022-11-15T12:23:48;3.05;;;1.63;;
22955;SDS011;40888;48.148;11.526;2022-11-15T12:26:21;2.85;;;1.95;;
22955;SDS011;40888;48.148;11.526;2022-11-15T12:28:50;5.10;;;2.00;;
22955;SDS011;40888;48.148;11.526;2022-11-15T12:34:01;2.47;;;2.08;;
22955;SDS011;40888;48.148;11.526;2022-11-15T12:41:21;1.70;;;1.60;;
22955;SDS011;40888;48.148;11.526;2022-11-15T12:43:48;2.78;;;1.70;;
22955;SDS011;40888;48.148;11.526;2022-11-15T13:02:47;1.95;;;1.60;;
22955;SDS011;40888;48.148;11.526;2022-11-15T13:17:45;2.22;;;1.88;;
22955;SDS011;40888;48.148;11.526;2022-11-15T13:25:17;4.13;;;2.13;;
22955;SDS011;40888;48.148;11.526;2022-11-15T13:27:49;1.90;;;1.80;;
22955;SDS011;40888;48.148;11.526;2022-11-15T13:30:26;3.42;;;1.92;;
22955;SDS011;40888;48.148;11.526;2022-11-15T13:32:53;1.80;;;1.70;;
22955;SDS011;40888;48.148;11.526;2022-11-15T13:35:23;1.85;;;1.75;;
22955;SDS011;40888;48.148;11.526;2022-11-15T13:37:50;2.00;;;1.90;;
22955;SDS011;40888;48.148;11.526;2022-11-15T13:40:33;1.75;;;1.65;;
22955;SDS011;40888;48.148;11.526;2022-11-15T13:43:00;1.88;;;1.73;;
22955;SDS011;40888;48.148;11.526;2022-11-15T13:45:39;2.05;;;1.95;;
22955;SDS011;40888;48.148;11.526;2022-11-15T13:48:07;2.10;;;1.90;;
22955;SDS011;40888;48.148;11.526;2022-11-15T13:50:34;2.00;;;1.90;;
22955;SDS011;40888;48.148;11.526;2022-11-15T13:53:02;1.90;;;1.80;;
22955;SDS011;40888;48.148;11.526;2022-11-15T13:55:29;2.15;;;1.70;;
22955;SDS011;40888;48.148;11.526;2022-11-15T13:57:58;1.90;;;1.77;;
22955;SDS011;40888;48.148;11.526;2022-11-15T14:02:57;2.70;;;2.03;;
22955;SDS011;40888;48.148;11.526;2022-11-15T14:05:30;1.70;;;1.60;;
22955;SDS011;40888;48.148;11.526;2022-11-15T14:08:03;4.35;;;2.10;;
22955;SDS011;40888;48.148;11.526;2022-11-15T14:10:31;3.13;;;2.05;;
22955;SDS011;40888;48.148;11.526;2022-11-15T14:12:57;2.67;;;2.38;;
22955;SDS011;40888;48.148;11.526;2022-11-15T14:17:56;2.47;;;2.28;;
22955;SDS011;40888;48.148;11.526;2022-11-15T14:23:03;2.13;;;1.98;;
22955;SDS011;40888;48.148;11.526;2022-11-15T14:25:30;2.28;;;1.92;;
22955;SDS011;40888;48.148;11.526;2022-11-15T14:28:12;2.30;;;2.10;;
22955;SDS011;40888;48.148;11.526;2022-11-15T14:30:40;2.38;;;2.15;;
22955;SDS011;40888;48.148;11.526;2022-11-15T14:33:27;2.42;;;2.22;;
22955;SDS011;40888;48.148;11.526;2022-11-15T14:35:54;3.17;;;2.05;;
22955;SDS011;40888;48.148;11.526;2022-11-15T14:38:22;2.58;;;2.38;;
22955;SDS011;40888;48.148;11.526;2022-11-15T14:40:49;2.63;;;2.20;;
22955;SDS011;40888;48.148;11.526;2022-11-15T14:43:15;2.55;;;2.22;;
22955;SDS011;40888;48.148;11.526;2022-11-15T14:45:42;3.08;;;2.10;;
22955;SDS011;40888;48.148;11.526;2022-11-15T14:48:08;2.33;;;2.10;;
22955;SDS011;40888;48.148;11.526;2022-11-15T14:50:35;4.65;;;2.80;;
22955;SDS011;40888;48.148;11.526;2022-11-15T14:53:01;3.45;;;2.90;;
22955;SDS011;40888;48.148;11.526;2022-11-15T14:55:34;4.72;;;3.28;;
22955;SDS011;40888;48.148;11.526;2022-11-15T14:58:02;4.28;;;3.35;;
22955;SDS011;40888;48.148;11.526;2022-11-15T15:00:30;3.92;;;3.53;;
22955;SDS011;40888;48.148;11.526;2022-11-15T15:02:57;6.18;;;3.88;;
22955;SDS011;40888;48.148;11.526;2022-11-15T15:05:29;5.32;;;3.50;;
22955;SDS011;40888;48.148;11.526;2022-11-15T15:07:56;4.72;;;3.70;;
22955;SDS011;40888;48.148;11.526;2022-11-15T15:10:22;4.28;;;3.88;;
22955;SDS011;40888;48.148;11.526;2022-11-15T15:12:50;4.78;;;3.95;;
22955;SDS011;40888;48.148;11.526;2022-11-15T15:15:17;5.67;;;4.03;;
22955;SDS011;40888;48.148;11.526;2022-11-15T15:17:44;5.47;;;4.37;;
22955;SDS011;40888;48.148;11.526;2022-11-15T15:20:10;5.67;;;4.27;;
22955;SDS011;40888;48.148;11.526;2022-11-15T15:22:37;6.27;;;4.53;;
22955;SDS011;40888;48.148;11.526;2022-11-15T15:25:09;7.80;;;4.90;;
22955;SDS011;40888;48.148;11.526;2022-11-15T15:27:41;5.53;;;4.80;;
22955;SDS011;40888;48.148;11.526;2022-11-15T15:30:08;5.03;;;4.53;;
22955;SDS011;40888;48.148;11.526;2022-11-15T15:32:34;5.30;;;4.80;;
22955;SDS011;40888;48.148;11.526;2022-11-15T15:35:00;5.40;;;4.90;;
22955;SDS011;40888;48.148;11.526;2022-11-15T15:37:26;6.33;;;5.50;;
22955;SDS011;40888;48.148;11.526;2022-11-15T15:39:53;5.13;;;4.33;;
22955;SDS011;40888;48.148;11.526;2022-11-15T15:42:20;7.00;;;5.17;;
22955;SDS011;40888;48.148;11.526;2022-11-15T15:44:47;7.43;;;4.80;;
22955;SDS011;40888;48.148;11.526;2022-11-15T15:47:18;6.23;;;5.43;;
22955;SDS011;40888;48.148;11.526;2022-11-15T15:49:46;6.00;;;5.30;;
22955;SDS011;40888;48.148;11.526;2022-11-15T15:52:12;5.90;;;5.10;;
22955;SDS011;40888;48.148;11.526;2022-11-15T15:54:39;6.27;;;5.53;;
22955;SDS011;40888;48.148;11.526;2022-11-15T15:57:05;5.63;;;5.07;;
22955;SDS011;40888;48.148;11.526;2022-11-15T15:59:32;7.73;;;5.70;;
22955;SDS011;40888;48.148;11.526;2022-11-15T16:01:58;7.63;;;5.13;;
22955;SDS011;40888;48.148;11.526;2022-11-15T16:04:25;10.13;;;6.47;;
22955;SDS011;40888;48.148;11.526;2022-11-15T16:06:51;6.00;;;5.03;;
22955;SDS011;40888;48.148;11.526;2022-11-15T16:09:20;7.83;;;5.53;;
22955;SDS011;40888;48.148;11.526;2022-11-15T16:12:08;7.20;;;5.67;;
22955;SDS011;40888;48.148;11.526;2022-11-15T16:14:35;7.73;;;5.40;;
22955;SDS011;40888;48.148;11.526;2022-11-15T16:17:01;6.17;;;5.17;;
22955;SDS011;40888;48.148;11.526;2022-11-15T16:19:28;7.13;;;5.80;;
22955;SDS011;40888;48.148;11.526;2022-11-15T16:21:54;6.53;;;5.10;;
22955;SDS011;40888;48.148;11.526;2022-11-15T16:24:20;8.00;;;5.73;;
22955;SDS011;40888;48.148;11.526;2022-11-15T16:26:47;6.33;;;5.70;;
22955;SDS011;40888;48.148;11.526;2022-11-15T16:29:13;9.17;;;5.87;;
22955;SDS011;40888;48.148;11.526;2022-11-15T16:31:39;7.30;;;5.93;;
22955;SDS011;40888;48.148;11.526;2022-11-15T16:34:05;6.20;;;5.20;;
22955;SDS011;40888;48.148;11.526;2022-11-15T16:36:33;6.23;;;5.70;;
22955;SDS011;40888;48.148;11.526;2022-11-15T16:39:00;8.97;;;5.67;;
22955;SDS011;40888;48.148;11.526;2022-11-15T16:41:29;11.17;;;10.03;;
22955;SDS011;40888;48.148;11.526;2022-11-15T16:43:55;9.57;;;8.57;;
22955;SDS011;40888;48.148;11.526;2022-11-15T16:46:25;8.00;;;6.57;;